sensor_id;sensor_type;location;lat;lon;timestamp;pressure;altitude;pressure_sealevel;temperature;humidity
60489;BME280;46331;49.252;8.904;2023-01-04T00:00:33;100994.09;;;2.21;99.48
60489;BME280;46331;49.252;8.904;2023-01-04T00:01:16;100990.63;;;2.20;100.00
60489;BME280;46331;49.252;8.904;2023-01-04T00:01:57;100996.00;;;2.19;100.00
60489;BME280;46331;49.252;8.904;2023-01-04T00:02:37;100997.81;;;2.18;100.00
60489;BME280;46331;49.252;8.904;2023-01-04T00:03:18;100994.41;;;2.18;100.00
60489;BME280;46331;49.252;8.904;2023-01-04T00:03:58;100993.53;;;2.17;100.00
60489;BME280;46331;49.252;8.904;2023-01-04T00:04:39;100985.84;;;2.15;100.00
60489;BME280;46331;49.252;8.904;2023-01-04T00:05:19;100984.88;;;2.17;100.00
60489;BME280;46331;49.252;8.904;2023-01-04T00:06:03;100979.00;;;2.14;100.00
60489;BME280;46331;49.252;8.904;2023-01-04T00:06:44;100976.69;;;2.11;100.00
60489;BME280;46331;49.252;8.904;2023-01-04T00:07:24;100975.03;;;2.10;99.91
60489;BME280;46331;49.252;8.904;2023-01-04T00:08:05;100973.22;;;2.11;100.00
60489;BME280;46331;49.252;8.904;2023-01-04T00:08:46;100976.69;;;2.11;100.00
60489;BME280;46331;49.252;8.904;2023-01-04T00:09:27;100970.44;;;2.12;100.00
60489;BME280;46331;49.252;8.904;2023-01-04T00:10:08;100966.34;;;2.10;100.00
60489;BME280;46331;49.252;8.904;2023-01-04T00:10:48;100969.78;;;2.10;100.00
60489;BME280;46331;49.252;8.904;2023-01-04T00:11:29;100965.38;;;2.11;100.00
60489;BME280;46331;49.252;8.904;2023-01-04T00:12:09;100968.81;;;2.11;100.00
60489;BME280;46331;49.252;8.904;2023-01-04T00:12:50;100956.41;;;2.13;100.00
60489;BME280;46331;49.252;8.904;2023-01-04T00:13:31;100973.22;;;2.11;100.00
60489;BME280;46331;49.252;8.904;2023-01-04T00:14:13;100975.16;;;2.09;99.92
60489;BME280;46331;49.252;8.904;2023-01-04T00:14:53;100968.13;;;2.09;99.71
60489;BME280;46331;49.252;8.904;2023-01-04T00:15:34;100976.13;;;2.08;99.66
60489;BME280;46331;49.252;8.904;2023-01-04T00:16:25;100972.84;;;2.06;100.00
60489;BME280;46331;49.252;8.904;2023-01-04T00:17:06;100987.59;;;2.07;100.00
60489;BME280;46331;49.252;8.904;2023-01-04T00:17:47;100980.69;;;2.06;100.00
60489;BME280;46331;49.252;8.904;2023-01-04T00:18:29;100979.91;;;2.05;100.00
60489;BME280;46331;49.252;8.904;2023-01-04T00:19:11;100979.19;;;2.03;100.00
60489;BME280;46331;49.252;8.904;2023-01-04T00:19:52;100982.97;;;2.01;100.00
60489;BME280;46331;49.252;8.904;2023-01-04T00:20:33;100978.69;;;2.00;100.00
60489;BME280;46331;49.252;8.904;2023-01-04T00:21:16;100983.56;;;1.94;100.00
60489;BME280;46331;49.252;8.904;2023-01-04T00:21:57;100984.38;;;1.95;100.00
60489;BME280;46331;49.252;8.904;2023-01-04T00:22:37;100978.47;;;1.93;100.00
60489;BME280;46331;49.252;8.904;2023-01-04T00:23:18;100980.25;;;1.92;100.00
60489;BME280;46331;49.252;8.904;2023-01-04T00:24:00;100982.19;;;1.90;100.00
60489;BME280;46331;49.252;8.904;2023-01-04T00:24:40;100981.44;;;1.80;100.00
60489;BME280;46331;49.252;8.904;2023-01-04T00:25:21;100983.31;;;1.88;100.00
60489;BME280;46331;49.252;8.904;2023-01-04T00:26:05;100983.16;;;1.89;100.00
60489;BME280;46331;49.252;8.904;2023-01-04T00:26:46;100980.53;;;1.89;100.00
60489;BME280;46331;49.252;8.904;2023-01-04T00:27:26;100988.25;;;1.91;100.00
60489;BME280;46331;49.252;8.904;2023-01-04T00:28:07;100981.38;;;1.90;100.00
60489;BME280;46331;49.252;8.904;2023-01-04T00:28:53;100984.16;;;1.88;100.00
60489;BME280;46331;49.252;8.904;2023-01-04T00:29:34;100984.97;;;1.89;100.00
60489;BME280;46331;49.252;8.904;2023-01-04T00:30:15;100983.31;;;1.88;100.00
60489;BME280;46331;49.252;8.904;2023-01-04T00:30:55;100985.94;;;1.88;100.00
60489;BME280;46331;49.252;8.904;2023-01-04T00:31:36;100984.44;;;1.85;100.00
60489;BME280;46331;49.252;8.904;2023-01-04T00:32:17;100986.38;;;1.83;100.00
60489;BME280;46331;49.252;8.904;2023-01-04T00:32:58;100986.22;;;1.85;100.00
60489;BME280;46331;49.252;8.904;2023-01-04T00:33:39;100975.91;;;1.83;100.00
60489;BME280;46331;49.252;8.904;2023-01-04T00:34:19;100978.66;;;1.82;100.00
60489;BME280;46331;49.252;8.904;2023-01-04T00:35:00;100976.91;;;1.82;100.00
60489;BME280;46331;49.252;8.904;2023-01-04T00:35:40;100984.75;;;1.82;100.00
60489;BME280;46331;49.252;8.904;2023-01-04T00:36:21;100985.41;;;1.84;100.00
60489;BME280;46331;49.252;8.904;2023-01-04T00:37:02;100976.44;;;1.87;100.00
60489;BME280;46331;49.252;8.904;2023-01-04T00:37:42;100980.53;;;1.89;100.00
60489;BME280;46331;49.252;8.904;2023-01-04T00:38:23;100981.25;;;1.91;100.00
60489;BME280;46331;49.252;8.904;2023-01-04T00:39:03;100975.16;;;1.91;100.00
60489;BME280;46331;49.252;8.904;2023-01-04T00:39:47;100973.53;;;1.90;100.00
60489;BME280;46331;49.252;8.904;2023-01-04T00:40:27;100973.53;;;1.90;100.00
60489;BME280;46331;49.252;8.904;2023-01-04T00:41:09;100979.59;;;1.90;100.00
60489;BME280;46331;49.252;8.904;2023-01-04T00:41:51;100970.09;;;1.89;100.00
60489;BME280;46331;49.252;8.904;2023-01-04T00:42:32;100969.19;;;1.81;100.00
60489;BME280;46331;49.252;8.904;2023-01-04T00:43:13;100967.25;;;1.83;100.00
60489;BME280;46331;49.252;8.904;2023-01-04T00:43:53;100967.91;;;1.85;100.00
60489;BME280;46331;49.252;8.904;2023-01-04T00:44:34;100968.59;;;1.87;100.00
60489;BME280;46331;49.252;8.904;2023-01-04T00:45:15;100971.88;;;1.89;100.00
60489;BME280;46331;49.252;8.904;2023-01-04T00:45:58;100970.91;;;1.90;100.00
60489;BME280;46331;49.252;8.904;2023-01-04T00:46:40;100960.59;;;1.88;100.00
60489;BME280;46331;49.252;8.904;2023-01-04T00:47:21;100966.66;;;1.89;100.00
60489;BME280;46331;49.252;8.904;2023-01-04T00:48:02;100957.84;;;1.90;100.00
60489;BME280;46331;49.252;8.904;2023-01-04T00:48:42;100960.47;;;1.90;100.00
60489;BME280;46331;49.252;8.904;2023-01-04T00:49:24;100964.84;;;1.89;100.00
60489;BME280;46331;49.252;8.904;2023-01-04T00:50:05;100959.91;;;1.86;100.00
60489;BME280;46331;49.252;8.904;2023-01-04T00:50:46;100963.38;;;1.87;100.00
60489;BME280;46331;49.252;8.904;2023-01-04T00:51:29;100962.53;;;1.86;100.00
60489;BME280;46331;49.252;8.904;2023-01-04T00:52:10;100967.75;;;1.86;100.00
60489;BME280;46331;49.252;8.904;2023-01-04T00:52:50;100967.91;;;1.85;100.00
60489;BME280;46331;49.252;8.904;2023-01-04T00:53:31;100968.59;;;1.87;100.00
60489;BME280;46331;49.252;8.904;2023-01-04T00:54:13;100976.59;;;1.85;100.00
60489;BME280;46331;49.252;8.904;2023-01-04T00:54:54;100967.31;;;1.91;100.00
60489;BME280;46331;49.252;8.904;2023-01-04T00:55:34;100964.03;;;1.89;100.00
60489;BME280;46331;49.252;8.904;2023-01-04T00:56:15;100963.59;;;1.93;100.00
60489;BME280;46331;49.252;8.904;2023-01-04T00:56:56;100966.06;;;1.95;100.00
60489;BME280;46331;49.252;8.904;2023-01-04T00:57:37;100966.88;;;1.95;100.00
60489;BME280;46331;49.252;8.904;2023-01-04T00:58:18;100966.41;;;2.00;100.00
60489;BME280;46331;49.252;8.904;2023-01-04T00:59:00;100962.84;;;2.01;100.00
60489;BME280;46331;49.252;8.904;2023-01-04T00:59:41;100967.41;;;1.99;100.00
60489;BME280;46331;49.252;8.904;2023-01-04T01:00:21;100963.13;;;1.98;100.00
60489;BME280;46331;49.252;8.904;2023-01-04T01:01:07;100966.72;;;1.97;100.00
60489;BME280;46331;49.252;8.904;2023-01-04T01:01:48;100962.63;;;1.94;100.00
60489;BME280;46331;49.252;8.904;2023-01-04T01:02:28;100968.81;;;1.93;100.00
60489;BME280;46331;49.252;8.904;2023-01-04T01:03:09;100972.53;;;1.91;100.00
60489;BME280;46331;49.252;8.904;2023-01-04T01:03:57;100973.69;;;1.88;99.90
60489;BME280;46331;49.252;8.904;2023-01-04T01:04:37;100973.16;;;1.85;100.00
60489;BME280;46331;49.252;8.904;2023-01-04T01:05:18;100965.44;;;1.83;100.00
60489;BME280;46331;49.252;8.904;2023-01-04T01:06:03;100971.81;;;1.81;100.00
60489;BME280;46331;49.252;8.904;2023-01-04T01:06:44;100967.69;;;1.78;100.00
60489;BME280;46331;49.252;8.904;2023-01-04T01:07:25;100973.88;;;1.77;100.00
60489;BME280;46331;49.252;8.904;2023-01-04T01:08:05;100969.78;;;1.74;100.00
60489;BME280;46331;49.252;8.904;2023-01-04T01:09:04;100960.81;;;1.77;100.00
60489;BME280;46331;49.252;8.904;2023-01-04T01:09:45;100964.25;;;1.77;100.00
60489;BME280;46331;49.252;8.904;2023-01-04T01:10:25;100965.09;;;1.78;100.00
60489;BME280;46331;49.252;8.904;2023-01-04T01:11:08;100970.09;;;1.71;100.00
60489;BME280;46331;49.252;8.904;2023-01-04T01:11:51;100967.47;;;1.71;100.00
60489;BME280;46331;49.252;8.904;2023-01-04T01:12:32;100975.41;;;1.79;100.00
60489;BME280;46331;49.252;8.904;2023-01-04T01:13:12;100965.75;;;1.80;100.00
60489;BME280;46331;49.252;8.904;2023-01-04T01:13:53;100971.53;;;1.84;100.00
60489;BME280;46331;49.252;8.904;2023-01-04T01:14:34;100975.75;;;1.85;100.00
60489;BME280;46331;49.252;8.904;2023-01-04T01:15:14;100974.94;;;1.84;100.00
60489;BME280;46331;49.252;8.904;2023-01-04T01:15:55;100958.75;;;1.81;100.00
60489;BME280;46331;49.252;8.904;2023-01-04T01:16:36;100970.81;;;1.82;100.00
60489;BME280;46331;49.252;8.904;2023-01-04T01:17:17;100971.81;;;1.81;100.00
60489;BME280;46331;49.252;8.904;2023-01-04T01:17:57;100970.97;;;1.80;100.00
60489;BME280;46331;49.252;8.904;2023-01-04T01:18:39;100970.97;;;1.80;100.00
60489;BME280;46331;49.252;8.904;2023-01-04T01:19:20;100972.78;;;1.79;100.00
60489;BME280;46331;49.252;8.904;2023-01-04T01:20:01;100966.88;;;1.77;100.00
60489;BME280;46331;49.252;8.904;2023-01-04T01:20:42;100965.75;;;1.80;100.00
60489;BME280;46331;49.252;8.904;2023-01-04T01:21:25;100971.81;;;1.81;100.00
60489;BME280;46331;49.252;8.904;2023-01-04T01:22:06;100967.53;;;1.79;100.00
60489;BME280;46331;49.252;8.904;2023-01-04T01:22:47;100971.28;;;1.77;100.00
60489;BME280;46331;49.252;8.904;2023-01-04T01:23:28;100978.31;;;1.76;100.00
60489;BME280;46331;49.252;8.904;2023-01-04T01:24:17;100973.06;;;1.76;100.00
60489;BME280;46331;49.252;8.904;2023-01-04T01:24:58;100966.34;;;1.74;100.00
60489;BME280;46331;49.252;8.904;2023-01-04T01:25:39;100965.53;;;1.73;100.00
60489;BME280;46331;49.252;8.904;2023-01-04T01:26:22;100971.72;;;1.72;100.00
60489;BME280;46331;49.252;8.904;2023-01-04T01:27:03;100967.47;;;1.71;100.00
60489;BME280;46331;49.252;8.904;2023-01-04T01:27:43;100968.59;;;1.69;99.92
60489;BME280;46331;49.252;8.904;2023-01-04T01:28:24;100969.53;;;1.68;99.43
60489;BME280;46331;49.252;8.904;2023-01-04T01:29:04;100967.91;;;1.67;99.67
60489;BME280;46331;49.252;8.904;2023-01-04T01:29:45;100973.28;;;1.65;99.58
60489;BME280;46331;49.252;8.904;2023-01-04T01:30:26;100970.00;;;1.63;99.52
60489;BME280;46331;49.252;8.904;2023-01-04T01:31:09;100974.41;;;1.63;99.83
60489;BME280;46331;49.252;8.904;2023-01-04T01:31:50;100971.94;;;1.61;99.65
60489;BME280;46331;49.252;8.904;2023-01-04T01:32:31;100962.28;;;1.61;99.54
60489;BME280;46331;49.252;8.904;2023-01-04T01:33:11;100967.53;;;1.61;99.94
60489;BME280;46331;49.252;8.904;2023-01-04T01:33:54;100972.75;;;1.61;99.85
60489;BME280;46331;49.252;8.904;2023-01-04T01:34:34;100971.13;;;1.60;99.83
60489;BME280;46331;49.252;8.904;2023-01-04T01:35:15;100970.28;;;1.60;99.86
60489;BME280;46331;49.252;8.904;2023-01-04T01:36:00;100970.28;;;1.60;99.96
60489;BME280;46331;49.252;8.904;2023-01-04T01:36:41;100967.81;;;1.58;99.64
60489;BME280;46331;49.252;8.904;2023-01-04T01:37:21;100969.63;;;1.58;99.78
60489;BME280;46331;49.252;8.904;2023-01-04T01:38:02;100964.53;;;1.56;99.72
60489;BME280;46331;49.252;8.904;2023-01-04T01:38:43;100965.50;;;1.55;100.00
60489;BME280;46331;49.252;8.904;2023-01-04T01:39:23;100965.63;;;1.54;99.99
60489;BME280;46331;49.252;8.904;2023-01-04T01:40:04;100964.81;;;1.53;100.00
60489;BME280;46331;49.252;8.904;2023-01-04T01:40:45;100964.00;;;1.53;100.00
60489;BME280;46331;49.252;8.904;2023-01-04T01:41:31;100961.56;;;1.51;99.86
60489;BME280;46331;49.252;8.904;2023-01-04T01:42:19;100959.91;;;1.50;100.00
60489;BME280;46331;49.252;8.904;2023-01-04T01:43:00;100964.31;;;1.50;100.00
60489;BME280;46331;49.252;8.904;2023-01-04T01:45:30;100962.94;;;1.46;100.00
60489;BME280;46331;49.252;8.904;2023-01-04T01:46:11;100957.06;;;1.43;100.00
60489;BME280;46331;49.252;8.904;2023-01-04T01:46:53;100958.69;;;1.45;100.00
60489;BME280;46331;49.252;8.904;2023-01-04T01:47:40;100952.63;;;1.44;100.00
60489;BME280;46331;49.252;8.904;2023-01-04T01:48:26;100954.28;;;1.45;100.00
60489;BME280;46331;49.252;8.904;2023-01-04T01:49:24;100953.59;;;1.43;100.00
60489;BME280;46331;49.252;8.904;2023-01-04T01:50:19;100952.78;;;1.42;100.00
60489;BME280;46331;49.252;8.904;2023-01-04T01:51:02;100958.97;;;1.41;100.00
60489;BME280;46331;49.252;8.904;2023-01-04T01:51:44;100954.72;;;1.40;100.00
60489;BME280;46331;49.252;8.904;2023-01-04T01:52:28;100951.28;;;1.40;99.93
60489;BME280;46331;49.252;8.904;2023-01-04T01:53:11;100956.50;;;1.40;100.00
60489;BME280;46331;49.252;8.904;2023-01-04T01:53:56;100954.88;;;1.39;100.00
60489;BME280;46331;49.252;8.904;2023-01-04T01:54:41;100958.31;;;1.39;100.00
60489;BME280;46331;49.252;8.904;2023-01-04T01:55:24;100952.78;;;1.42;100.00
60489;BME280;46331;49.252;8.904;2023-01-04T01:56:06;100945.59;;;1.45;100.00
60489;BME280;46331;49.252;8.904;2023-01-04T01:56:52;100951.97;;;1.42;100.00
60489;BME280;46331;49.252;8.904;2023-01-04T01:57:36;100947.84;;;1.39;100.00
60489;BME280;46331;49.252;8.904;2023-01-04T01:58:23;100950.38;;;1.31;100.00
60489;BME280;46331;49.252;8.904;2023-01-04T01:59:08;100944.72;;;1.36;100.00
60489;BME280;46331;49.252;8.904;2023-01-04T01:59:52;100954.72;;;1.40;100.00
60489;BME280;46331;49.252;8.904;2023-01-04T02:00:34;100951.41;;;1.38;100.00
60489;BME280;46331;49.252;8.904;2023-01-04T02:01:15;100950.09;;;1.34;100.00
60489;BME280;46331;49.252;8.904;2023-01-04T02:01:56;100941.56;;;1.32;100.00
60489;BME280;46331;49.252;8.904;2023-01-04T02:02:41;100947.78;;;1.31;100.00
60489;BME280;46331;49.252;8.904;2023-01-04T02:03:32;100946.94;;;1.31;100.00
60489;BME280;46331;49.252;8.904;2023-01-04T02:04:15;100938.78;;;1.34;100.00
60489;BME280;46331;49.252;8.904;2023-01-04T02:04:57;100940.31;;;1.36;100.00
60489;BME280;46331;49.252;8.904;2023-01-04T02:05:39;100940.31;;;1.36;100.00
60489;BME280;46331;49.252;8.904;2023-01-04T02:06:24;100943.22;;;1.33;100.00
60489;BME280;46331;49.252;8.904;2023-01-04T02:07:07;100940.59;;;1.33;100.00
60489;BME280;46331;49.252;8.904;2023-01-04T02:07:49;100932.09;;;1.31;100.00
60489;BME280;46331;49.252;8.904;2023-01-04T02:08:30;100934.69;;;1.31;100.00
60489;BME280;46331;49.252;8.904;2023-01-04T02:09:12;100932.22;;;1.30;100.00
60489;BME280;46331;49.252;8.904;2023-01-04T02:09:53;100931.25;;;1.31;100.00
60489;BME280;46331;49.252;8.904;2023-01-04T02:10:35;100931.78;;;1.34;100.00
60489;BME280;46331;49.252;8.904;2023-01-04T02:11:15;100929.19;;;1.34;100.00
60489;BME280;46331;49.252;8.904;2023-01-04T02:11:56;100924.78;;;1.35;100.00
60489;BME280;46331;49.252;8.904;2023-01-04T02:12:36;100927.53;;;1.33;100.00
60489;BME280;46331;49.252;8.904;2023-01-04T02:13:22;100933.72;;;1.32;100.00
60489;BME280;46331;49.252;8.904;2023-01-04T02:14:05;100931.25;;;1.31;100.00
60489;BME280;46331;49.252;8.904;2023-01-04T02:15:05;100936.78;;;1.28;100.00
60489;BME280;46331;49.252;8.904;2023-01-04T02:16:09;100937.75;;;1.27;100.00
60489;BME280;46331;49.252;8.904;2023-01-04T02:16:59;100939.66;;;1.24;100.00
60489;BME280;46331;49.252;8.904;2023-01-04T02:18:39;100944.81;;;1.16;100.00
60489;BME280;46331;49.252;8.904;2023-01-04T02:21:01;100948.38;;;1.15;100.00
60489;BME280;46331;49.252;8.904;2023-01-04T02:21:55;100947.84;;;1.12;100.00
60489;BME280;46331;49.252;8.904;2023-01-04T02:24:12;100946.19;;;1.11;100.00
60489;BME280;46331;49.252;8.904;2023-01-04T02:27:01;100930.97;;;1.06;100.00
60489;BME280;46331;49.252;8.904;2023-01-04T02:27:55;100936.19;;;1.06;100.00
60489;BME280;46331;49.252;8.904;2023-01-04T02:32:23;100926.59;;;1.06;100.00
60489;BME280;46331;49.252;8.904;2023-01-04T02:33:32;100916.94;;;1.07;100.00
60489;BME280;46331;49.252;8.904;2023-01-04T02:36:44;100916.88;;;1.17;100.00
60489;BME280;46331;49.252;8.904;2023-01-04T02:37:39;100916.06;;;1.16;100.00
60489;BME280;46331;49.252;8.904;2023-01-04T02:38:27;100910.84;;;1.16;100.00
60489;BME280;46331;49.252;8.904;2023-01-04T02:39:34;100904.13;;;1.14;100.00
60489;BME280;46331;49.252;8.904;2023-01-04T02:40:22;100911.66;;;1.17;100.00
60489;BME280;46331;49.252;8.904;2023-01-04T02:41:56;100905.19;;;1.21;100.00
60489;BME280;46331;49.252;8.904;2023-01-04T02:42:46;100909.44;;;1.22;100.00
60489;BME280;46331;49.252;8.904;2023-01-04T02:45:08;100906.13;;;1.20;100.00
60489;BME280;46331;49.252;8.904;2023-01-04T02:46:01;100909.75;;;1.19;100.00
60489;BME280;46331;49.252;8.904;2023-01-04T02:46:51;100903.53;;;1.20;100.00
60489;BME280;46331;49.252;8.904;2023-01-04T02:47:36;100899.00;;;1.22;100.00
60489;BME280;46331;49.252;8.904;2023-01-04T02:48:39;100905.03;;;1.22;100.00
60489;BME280;46331;49.252;8.904;2023-01-04T02:49:39;100903.25;;;1.23;100.00
60489;BME280;46331;49.252;8.904;2023-01-04T02:50:51;100902.78;;;1.28;100.00
60489;BME280;46331;49.252;8.904;2023-01-04T02:51:34;100902.78;;;1.28;100.00
60489;BME280;46331;49.252;8.904;2023-01-04T02:52:15;100905.84;;;1.23;100.00
60489;BME280;46331;49.252;8.904;2023-01-04T02:53:02;100906.53;;;1.25;100.00
60489;BME280;46331;49.252;8.904;2023-01-04T02:53:44;100902.28;;;1.24;100.00
60489;BME280;46331;49.252;8.904;2023-01-04T02:54:27;100902.28;;;1.24;100.00
60489;BME280;46331;49.252;8.904;2023-01-04T02:55:11;100899.97;;;1.21;100.00
60489;BME280;46331;49.252;8.904;2023-01-04T02:56:19;100903.38;;;1.21;100.00
60489;BME280;46331;49.252;8.904;2023-01-04T02:57:24;100896.69;;;1.19;100.00
60489;BME280;46331;49.252;8.904;2023-01-04T03:04:31;100880.72;;;1.22;100.00
60489;BME280;46331;49.252;8.904;2023-01-04T03:09:14;100877.34;;;1.30;100.00
60489;BME280;46331;49.252;8.904;2023-01-04T03:10:04;100881.59;;;1.31;100.00
60489;BME280;46331;49.252;8.904;2023-01-04T03:10:52;100884.06;;;1.32;100.00
60489;BME280;46331;49.252;8.904;2023-01-04T03:11:46;100874.00;;;1.37;100.00
60489;BME280;46331;49.252;8.904;2023-01-04T03:12:56;100874.66;;;1.39;100.00
60489;BME280;46331;49.252;8.904;2023-01-04T03:13:43;100884.00;;;1.42;100.00
60489;BME280;46331;49.252;8.904;2023-01-04T03:14:29;100882.06;;;1.44;99.85
60489;BME280;46331;49.252;8.904;2023-01-04T03:15:16;100882.88;;;1.45;100.00
60489;BME280;46331;49.252;8.904;2023-01-04T03:16:05;100883.88;;;1.43;99.84
60489;BME280;46331;49.252;8.904;2023-01-04T03:16:49;100885.63;;;1.43;99.63
60489;BME280;46331;49.252;8.904;2023-01-04T03:17:38;100886.47;;;1.43;99.77
60489;BME280;46331;49.252;8.904;2023-01-04T03:18:27;100881.09;;;1.45;99.80
60489;BME280;46331;49.252;8.904;2023-01-04T03:19:09;100886.34;;;1.45;99.96
60489;BME280;46331;49.252;8.904;2023-01-04T03:19:52;100887.28;;;1.44;99.55
60489;BME280;46331;49.252;8.904;2023-01-04T03:20:34;100878.78;;;1.42;99.33
60489;BME280;46331;49.252;8.904;2023-01-04T03:21:15;100881.25;;;1.43;99.13
60489;BME280;46331;49.252;8.904;2023-01-04T03:21:58;100889.41;;;1.40;98.53
60489;BME280;46331;49.252;8.904;2023-01-04T03:22:46;100881.56;;;1.40;98.92
60489;BME280;46331;49.252;8.904;2023-01-04T03:23:48;100890.34;;;1.39;99.39
60489;BME280;46331;49.252;8.904;2023-01-04T03:24:49;100895.34;;;1.33;98.68
60489;BME280;46331;49.252;8.904;2023-01-04T03:26:04;100887.06;;;1.37;99.50
60489;BME280;46331;49.252;8.904;2023-01-04T03:27:06;100881.44;;;1.32;99.24
60489;BME280;46331;49.252;8.904;2023-01-04T03:28:09;100889.28;;;1.32;99.13
60489;BME280;46331;49.252;8.904;2023-01-04T03:29:23;100887.53;;;1.33;99.43
60489;BME280;46331;49.252;8.904;2023-01-04T03:30:27;100890.13;;;1.33;99.54
60489;BME280;46331;49.252;8.904;2023-01-04T03:31:46;100886.53;;;1.34;99.67
60489;BME280;46331;49.252;8.904;2023-01-04T03:32:55;100877.72;;;1.35;99.36
60489;BME280;46331;49.252;8.904;2023-01-04T03:33:55;100879.97;;;1.30;99.73
60489;BME280;46331;49.252;8.904;2023-01-04T03:34:55;100868.09;;;1.35;99.66
60489;BME280;46331;49.252;8.904;2023-01-04T03:37:45;100865.47;;;1.35;99.99
60489;BME280;46331;49.252;8.904;2023-01-04T03:38:33;100863.56;;;1.37;100.00
60489;BME280;46331;49.252;8.904;2023-01-04T03:40:53;100871.75;;;1.42;100.00
60489;BME280;46331;49.252;8.904;2023-01-04T03:42:01;100861.16;;;1.44;100.00
60489;BME280;46331;49.252;8.904;2023-01-04T03:43:15;100872.88;;;1.40;100.00
60489;BME280;46331;49.252;8.904;2023-01-04T03:44:29;100875.03;;;1.45;100.00
60489;BME280;46331;49.252;8.904;2023-01-04T03:45:39;100867.44;;;1.51;100.00
60489;BME280;46331;49.252;8.904;2023-01-04T03:46:46;100869.66;;;1.46;100.00
60489;BME280;46331;49.252;8.904;2023-01-04T03:48:10;100868.25;;;1.52;100.00
60489;BME280;46331;49.252;8.904;2023-01-04T03:50:11;100864.38;;;1.56;100.00
60489;BME280;46331;49.252;8.904;2023-01-04T03:51:14;100867.34;;;1.61;100.00
60489;BME280;46331;49.252;8.904;2023-01-04T03:51:57;100870.28;;;1.58;100.00
60489;BME280;46331;49.252;8.904;2023-01-04T03:52:40;100871.91;;;1.59;99.68
60489;BME280;46331;49.252;8.904;2023-01-04T03:53:22;100874.00;;;1.55;99.77
60489;BME280;46331;49.252;8.904;2023-01-04T03:54:55;100866.41;;;1.62;99.50
60489;BME280;46331;49.252;8.904;2023-01-04T03:55:40;100867.72;;;1.66;99.74
60489;BME280;46331;49.252;8.904;2023-01-04T03:56:22;100866.44;;;1.70;100.00
60489;BME280;46331;49.252;8.904;2023-01-04T03:57:04;100860.41;;;1.70;99.88
60489;BME280;46331;49.252;8.904;2023-01-04T03:57:47;100866.59;;;1.69;99.61
60489;BME280;46331;49.252;8.904;2023-01-04T03:58:28;100863.53;;;1.73;99.61
60489;BME280;46331;49.252;8.904;2023-01-04T03:59:10;100863.09;;;1.78;100.00
60489;BME280;46331;49.252;8.904;2023-01-04T03:59:55;100864.88;;;1.77;99.59
60489;BME280;46331;49.252;8.904;2023-01-04T04:00:37;100865.41;;;1.81;99.78
60489;BME280;46331;49.252;8.904;2023-01-04T04:01:19;100868.81;;;1.82;99.81
60489;BME280;46331;49.252;8.904;2023-01-04T04:02:01;100872.78;;;1.86;99.33
60489;BME280;46331;49.252;8.904;2023-01-04T04:02:44;100867.41;;;1.87;99.04
60489;BME280;46331;49.252;8.904;2023-01-04T04:03:25;100872.63;;;1.87;99.38
60489;BME280;46331;49.252;8.904;2023-01-04T04:04:06;100870.53;;;1.91;99.53
60489;BME280;46331;49.252;8.904;2023-01-04T04:05:05;100863.81;;;1.88;99.15
60489;BME280;46331;49.252;8.904;2023-01-04T04:06:07;100860.75;;;1.93;99.15
60489;BME280;46331;49.252;8.904;2023-01-04T04:07:06;100857.16;;;1.94;99.17
60489;BME280;46331;49.252;8.904;2023-01-04T04:08:05;100851.25;;;1.92;98.77
60489;BME280;46331;49.252;8.904;2023-01-04T04:09:05;100856.34;;;1.93;98.75
60489;BME280;46331;49.252;8.904;2023-01-04T04:09:45;100854.84;;;1.91;98.68
60489;BME280;46331;49.252;8.904;2023-01-04T04:10:26;100852.06;;;1.92;98.35
60489;BME280;46331;49.252;8.904;2023-01-04T04:11:06;100854.53;;;1.94;98.91
60489;BME280;46331;49.252;8.904;2023-01-04T04:12:06;100846.69;;;1.94;98.24
60489;BME280;46331;49.252;8.904;2023-01-04T04:12:46;100843.09;;;1.95;98.31
60489;BME280;46331;49.252;8.904;2023-01-04T04:13:28;100843.09;;;1.95;98.52
60489;BME280;46331;49.252;8.904;2023-01-04T04:14:08;100841.16;;;1.97;98.58
60489;BME280;46331;49.252;8.904;2023-01-04T04:14:49;100841.44;;;1.94;98.17
60489;BME280;46331;49.252;8.904;2023-01-04T04:15:29;100843.09;;;1.95;97.98
60489;BME280;46331;49.252;8.904;2023-01-04T04:16:10;100838.53;;;1.97;97.92
60489;BME280;46331;49.252;8.904;2023-01-04T04:16:50;100844.31;;;2.01;98.28
60489;BME280;46331;49.252;8.904;2023-01-04T04:17:31;100843.16;;;2.03;98.46
60489;BME280;46331;49.252;8.904;2023-01-04T04:18:11;100835.16;;;2.05;98.64
60489;BME280;46331;49.252;8.904;2023-01-04T04:18:52;100836.66;;;2.07;98.02
60489;BME280;46331;49.252;8.904;2023-01-04T04:19:33;100839.78;;;2.11;98.46
60489;BME280;46331;49.252;8.904;2023-01-04T04:20:13;100841.56;;;2.10;98.03
60489;BME280;46331;49.252;8.904;2023-01-04T04:20:57;100843.38;;;2.10;97.92
60489;BME280;46331;49.252;8.904;2023-01-04T04:21:37;100833.56;;;2.12;98.43
60489;BME280;46331;49.252;8.904;2023-01-04T04:22:18;100840.31;;;2.14;98.45
60489;BME280;46331;49.252;8.904;2023-01-04T04:22:58;100840.31;;;2.14;98.23
60489;BME280;46331;49.252;8.904;2023-01-04T04:23:39;100839.69;;;2.21;98.44
60489;BME280;46331;49.252;8.904;2023-01-04T04:24:24;100835.91;;;2.23;98.43
60489;BME280;46331;49.252;8.904;2023-01-04T04:25:05;100843.78;;;2.23;97.64
60489;BME280;46331;49.252;8.904;2023-01-04T04:25:46;100838.69;;;2.22;97.20
60489;BME280;46331;49.252;8.904;2023-01-04T04:26:27;100838.38;;;2.25;97.28
60489;BME280;46331;49.252;8.904;2023-01-04T04:27:07;100835.91;;;2.23;96.87
60489;BME280;46331;49.252;8.904;2023-01-04T04:27:48;100836.06;;;2.22;96.53
60489;BME280;46331;49.252;8.904;2023-01-04T04:28:28;100841.31;;;2.22;96.67
60489;BME280;46331;49.252;8.904;2023-01-04T04:29:09;100838.69;;;2.22;96.44
60489;BME280;46331;49.252;8.904;2023-01-04T04:29:50;100835.91;;;2.23;96.76